Eskdale, New Zealand
Current Conditions -  °F | °C
As of 11:00 PM on Sunday 23 Nov 2014 (Local Time) from NZWN Reporting Station
Broken Clouds Broken Clouds  
Wind Chill: 57°   Ceiling: 2100
Heat Index: 57°   Visibility: 6mi
Dew Point: 48°   Wind: 25mph
Humidity: 72%   Direction: 350°N
Pressure: 29.97"   Gusts: NA
Location:  39.39°S, 176.83°E
Report Text: NZWN 231100Z AUTO 35022KT 9999 BKN021/// 14/09 Q1015 NOSIG
Loading
Personal Weather Stations






























Interactive Weather Map New forecast layout! Learn more

10-Day Weather Forecast

Advertisements
Track Severe Weather on mobile